sensor_id;sensor_type;location;lat;lon;timestamp;pressure;altitude;pressure_sealevel;temperature;humidity
57376;BME280;44805;45.048;5.062;2023-03-26T00:00:08;99584.91;;;13.32;61.87
57376;BME280;44805;45.048;5.062;2023-03-26T00:02:38;99585.41;;;13.19;62.14
57376;BME280;44805;45.048;5.062;2023-03-26T00:05:04;99580.28;;;13.26;62.68
57376;BME280;44805;45.048;5.062;2023-03-26T00:07:30;99576.31;;;13.22;63.73
57376;BME280;44805;45.048;5.062;2023-03-26T00:09:55;99585.41;;;13.28;62.61
57376;BME280;44805;45.048;5.062;2023-03-26T00:12:22;99580.09;;;13.19;63.27
57376;BME280;44805;45.048;5.062;2023-03-26T00:14:47;99582.28;;;13.16;63.91
57376;BME280;44805;45.048;5.062;2023-03-26T00:17:12;99588.41;;;13.00;65.00
57376;BME280;44805;45.048;5.062;2023-03-26T00:19:37;99594.22;;;12.95;64.67
57376;BME280;44805;45.048;5.062;2023-03-26T00:22:21;99595.16;;;13.02;64.31
57376;BME280;44805;45.048;5.062;2023-03-26T00:24:47;99597.50;;;12.48;66.93
57376;BME280;44805;45.048;5.062;2023-03-26T00:27:15;99602.31;;;12.61;66.97
57376;BME280;44805;45.048;5.062;2023-03-26T00:29:41;99580.34;;;12.85;65.34
57376;BME280;44805;45.048;5.062;2023-03-26T00:32:07;99580.16;;;12.87;65.25
57376;BME280;44805;45.048;5.062;2023-03-26T00:34:32;99593.69;;;12.92;64.78
57376;BME280;44805;45.048;5.062;2023-03-26T00:36:58;99593.88;;;12.90;66.16
57376;BME280;44805;45.048;5.062;2023-03-26T00:39:26;99576.84;;;12.85;66.30
57376;BME280;44805;45.048;5.062;2023-03-26T00:41:53;99578.50;;;13.02;66.07
57376;BME280;44805;45.048;5.062;2023-03-26T00:44:18;99576.84;;;13.01;66.28
57376;BME280;44805;45.048;5.062;2023-03-26T00:46:44;99571.25;;;12.96;67.32
57376;BME280;44805;45.048;5.062;2023-03-26T00:49:10;99564.28;;;12.95;66.34
57376;BME280;44805;45.048;5.062;2023-03-26T00:51:38;99573.91;;;12.88;68.20
57376;BME280;44805;45.048;5.062;2023-03-26T00:54:04;99568.75;;;13.02;67.26
57376;BME280;44805;45.048;5.062;2023-03-26T00:56:31;99553.19;;;13.16;66.67
57376;BME280;44805;45.048;5.062;2023-03-26T00:58:56;99558.66;;;13.14;67.33
57376;BME280;44805;45.048;5.062;2023-03-26T01:01:24;99573.53;;;13.15;67.53
57376;BME280;44805;45.048;5.062;2023-03-26T01:03:51;99584.47;;;12.79;69.05
57376;BME280;44805;45.048;5.062;2023-03-26T01:06:23;99594.03;;;12.89;69.70
57376;BME280;44805;45.048;5.062;2023-03-26T01:08:52;99587.56;;;12.99;69.20
57376;BME280;44805;45.048;5.062;2023-03-26T01:13:53;99569.72;;;13.10;70.63
57376;BME280;44805;45.048;5.062;2023-03-26T01:18:49;99563.44;;;13.02;73.06
57376;BME280;44805;45.048;5.062;2023-03-26T01:21:18;99542.00;;;13.06;73.75
57376;BME280;44805;45.048;5.062;2023-03-26T01:23:47;99530.25;;;13.08;74.14
57376;BME280;44805;45.048;5.062;2023-03-26T01:28:42;99534.53;;;13.09;72.89
57376;BME280;44805;45.048;5.062;2023-03-26T01:31:23;99530.56;;;13.05;73.83
57376;BME280;44805;45.048;5.062;2023-03-26T01:34:02;99527.78;;;13.07;73.94
57376;BME280;44805;45.048;5.062;2023-03-26T01:36:37;99518.06;;;12.99;74.20
57376;BME280;44805;45.048;5.062;2023-03-26T01:39:23;99503.84;;;13.00;74.69
57376;BME280;44805;45.048;5.062;2023-03-26T01:42:02;99495.59;;;13.03;77.05
57376;BME280;44805;45.048;5.062;2023-03-26T01:46:58;99495.09;;;12.99;76.62
57376;BME280;44805;45.048;5.062;2023-03-26T01:49:25;99500.56;;;12.98;76.07
57376;BME280;44805;45.048;5.062;2023-03-26T01:51:51;99493.44;;;12.98;76.86
57376;BME280;44805;45.048;5.062;2023-03-26T01:54:17;99487.34;;;12.98;76.38
57376;BME280;44805;45.048;5.062;2023-03-26T01:59:31;99487.53;;;12.88;74.58
57376;BME280;44805;45.048;5.062;2023-03-26T02:02:20;99477.09;;;12.95;76.09
57376;BME280;44805;45.048;5.062;2023-03-26T02:05:03;99467.53;;;12.94;76.73
57376;BME280;44805;45.048;5.062;2023-03-26T02:10:15;99447.41;;;12.93;76.38
57376;BME280;44805;45.048;5.062;2023-03-26T02:12:42;99446.47;;;12.61;75.04
57376;BME280;44805;45.048;5.062;2023-03-26T02:15:08;99436.06;;;12.68;76.31
57376;BME280;44805;45.048;5.062;2023-03-26T02:17:34;99430.63;;;12.61;77.98
57376;BME280;44805;45.048;5.062;2023-03-26T02:20:00;99428.34;;;12.58;79.34
57376;BME280;44805;45.048;5.062;2023-03-26T02:22:35;99438.09;;;12.49;80.67
57376;BME280;44805;45.048;5.062;2023-03-26T02:25:05;99427.22;;;12.44;76.67
57376;BME280;44805;45.048;5.062;2023-03-26T02:27:31;99420.09;;;12.53;76.83
57376;BME280;44805;45.048;5.062;2023-03-26T02:29:57;99411.66;;;12.57;77.05
57376;BME280;44805;45.048;5.062;2023-03-26T02:32:23;99409.84;;;12.58;77.52
57376;BME280;44805;45.048;5.062;2023-03-26T02:34:48;99409.88;;;12.50;78.37
57376;BME280;44805;45.048;5.062;2023-03-26T02:37:21;99408.22;;;12.49;79.85
57376;BME280;44805;45.048;5.062;2023-03-26T02:39:46;99408.56;;;12.46;79.45
57376;BME280;44805;45.048;5.062;2023-03-26T02:42:11;99405.56;;;12.49;79.24
57376;BME280;44805;45.048;5.062;2023-03-26T02:44:37;99401.44;;;12.46;80.38
57376;BME280;44805;45.048;5.062;2023-03-26T02:47:04;99394.03;;;12.50;81.26
57376;BME280;44805;45.048;5.062;2023-03-26T02:49:29;99383.81;;;12.47;79.79
57376;BME280;44805;45.048;5.062;2023-03-26T02:51:55;99369.94;;;12.45;80.30
57376;BME280;44805;45.048;5.062;2023-03-26T02:54:20;99355.41;;;12.49;80.08
57376;BME280;44805;45.048;5.062;2023-03-26T02:56:46;99371.59;;;12.46;80.11
57376;BME280;44805;45.048;5.062;2023-03-26T02:59:11;99368.75;;;12.55;80.42
57376;BME280;44805;45.048;5.062;2023-03-26T03:01:37;99366.81;;;12.49;80.00
57376;BME280;44805;45.048;5.062;2023-03-26T03:04:08;99364.03;;;12.34;80.76
57376;BME280;44805;45.048;5.062;2023-03-26T03:06:33;99364.03;;;12.34;80.40
57376;BME280;44805;45.048;5.062;2023-03-26T03:12:01;99350.19;;;12.32;81.81
57376;BME280;44805;45.048;5.062;2023-03-26T03:14:27;99347.88;;;12.29;81.72
57376;BME280;44805;45.048;5.062;2023-03-26T03:16:52;99357.63;;;12.29;80.85
57376;BME280;44805;45.048;5.062;2023-03-26T03:19:17;99349.69;;;12.21;81.54
57376;BME280;44805;45.048;5.062;2023-03-26T03:21:43;99344.28;;;12.14;82.23
57376;BME280;44805;45.048;5.062;2023-03-26T03:24:08;99344.75;;;12.26;82.80
57376;BME280;44805;45.048;5.062;2023-03-26T03:26:33;99339.34;;;12.19;82.65
57376;BME280;44805;45.048;5.062;2023-03-26T03:29:00;99335.84;;;12.19;83.31
57376;BME280;44805;45.048;5.062;2023-03-26T03:31:25;99336.81;;;12.26;83.08
57376;BME280;44805;45.048;5.062;2023-03-26T03:33:51;99323.50;;;12.19;82.87
57376;BME280;44805;45.048;5.062;2023-03-26T03:36:17;99330.44;;;12.12;83.60
57376;BME280;44805;45.048;5.062;2023-03-26T03:38:42;99326.97;;;12.03;83.94
57376;BME280;44805;45.048;5.062;2023-03-26T03:41:08;99311.66;;;12.07;85.16
57376;BME280;44805;45.048;5.062;2023-03-26T03:43:33;99307.34;;;12.06;84.71
57376;BME280;44805;45.048;5.062;2023-03-26T03:45:59;99311.66;;;12.07;85.39
57376;BME280;44805;45.048;5.062;2023-03-26T03:48:24;99308.34;;;12.05;85.93
57376;BME280;44805;45.048;5.062;2023-03-26T03:50:50;99308.63;;;12.18;85.33
57376;BME280;44805;45.048;5.062;2023-03-26T03:53:15;99295.44;;;12.18;85.35
57376;BME280;44805;45.048;5.062;2023-03-26T03:55:41;99291.09;;;12.33;84.49
57376;BME280;44805;45.048;5.062;2023-03-26T03:58:06;99302.84;;;12.23;84.79
57376;BME280;44805;45.048;5.062;2023-03-26T04:00:33;99313.28;;;12.08;85.53
57376;BME280;44805;45.048;5.062;2023-03-26T04:02:58;99304.19;;;12.10;85.83
57376;BME280;44805;45.048;5.062;2023-03-26T04:05:30;99293.16;;;12.15;85.83
57376;BME280;44805;45.048;5.062;2023-03-26T04:07:56;99295.47;;;12.10;86.94
57376;BME280;44805;45.048;5.062;2023-03-26T04:10:21;99285.91;;;12.01;87.05
57376;BME280;44805;45.048;5.062;2023-03-26T04:12:46;99278.00;;;12.09;87.26
57376;BME280;44805;45.048;5.062;2023-03-26T04:15:11;99280.56;;;12.25;86.41
57376;BME280;44805;45.048;5.062;2023-03-26T04:17:37;99285.50;;;12.28;87.65
57376;BME280;44805;45.048;5.062;2023-03-26T04:20:06;99268.69;;;12.29;87.10
57376;BME280;44805;45.048;5.062;2023-03-26T04:22:51;99273.13;;;12.37;86.83
57376;BME280;44805;45.048;5.062;2023-03-26T04:25:16;99275.59;;;12.30;86.95
57376;BME280;44805;45.048;5.062;2023-03-26T04:27:42;99287.84;;;12.31;86.76
57376;BME280;44805;45.048;5.062;2023-03-26T04:30:09;99298.56;;;12.30;87.50
57376;BME280;44805;45.048;5.062;2023-03-26T04:32:36;99292.25;;;12.39;87.20
57376;BME280;44805;45.048;5.062;2023-03-26T04:35:04;99283.84;;;12.35;88.08
57376;BME280;44805;45.048;5.062;2023-03-26T04:40:33;99270.44;;;12.45;90.13
57376;BME280;44805;45.048;5.062;2023-03-26T04:43:02;99276.88;;;12.43;90.60
57376;BME280;44805;45.048;5.062;2023-03-26T04:45:28;99286.78;;;12.41;91.12
57376;BME280;44805;45.048;5.062;2023-03-26T04:47:54;99287.09;;;12.46;91.85
57376;BME280;44805;45.048;5.062;2023-03-26T04:50:19;99291.25;;;12.40;92.31
57376;BME280;44805;45.048;5.062;2023-03-26T04:55:40;99280.66;;;12.48;92.26
57376;BME280;44805;45.048;5.062;2023-03-26T04:58:08;99280.00;;;12.46;94.24
57376;BME280;44805;45.048;5.062;2023-03-26T05:00:33;99251.50;;;12.42;94.57
57376;BME280;44805;45.048;5.062;2023-03-26T05:02:59;99254.75;;;12.44;95.51
57376;BME280;44805;45.048;5.062;2023-03-26T05:05:25;99256.66;;;12.27;95.66
57376;BME280;44805;45.048;5.062;2023-03-26T05:08:07;99253.88;;;12.20;95.19
57376;BME280;44805;45.048;5.062;2023-03-26T05:10:32;99250.97;;;12.07;96.17
57376;BME280;44805;45.048;5.062;2023-03-26T05:12:58;99248.25;;;12.23;96.61
57376;BME280;44805;45.048;5.062;2023-03-26T05:15:23;99232.91;;;12.27;96.29
57376;BME280;44805;45.048;5.062;2023-03-26T05:17:48;99228.91;;;12.39;94.64
57376;BME280;44805;45.048;5.062;2023-03-26T05:20:18;99227.72;;;12.42;94.90
57376;BME280;44805;45.048;5.062;2023-03-26T05:22:47;99227.72;;;12.42;94.42
57376;BME280;44805;45.048;5.062;2023-03-26T05:25:13;99232.50;;;12.38;93.95
57376;BME280;44805;45.048;5.062;2023-03-26T05:27:38;99233.38;;;12.30;95.54
57376;BME280;44805;45.048;5.062;2023-03-26T05:30:04;99241.22;;;12.47;94.91
57376;BME280;44805;45.048;5.062;2023-03-26T05:32:31;99238.75;;;12.45;94.19
57376;BME280;44805;45.048;5.062;2023-03-26T05:34:57;99236.25;;;12.52;93.85
57376;BME280;44805;45.048;5.062;2023-03-26T05:37:23;99240.84;;;12.58;93.01
57376;BME280;44805;45.048;5.062;2023-03-26T05:39:51;99246.81;;;12.52;91.83
57376;BME280;44805;45.048;5.062;2023-03-26T05:42:16;99261.41;;;12.40;93.65
57376;BME280;44805;45.048;5.062;2023-03-26T05:44:42;99259.53;;;12.48;93.88
57376;BME280;44805;45.048;5.062;2023-03-26T05:47:07;99253.78;;;12.45;94.37
57376;BME280;44805;45.048;5.062;2023-03-26T05:49:32;99257.53;;;12.50;94.23
57376;BME280;44805;45.048;5.062;2023-03-26T05:51:57;99255.75;;;12.43;93.21
57376;BME280;44805;45.048;5.062;2023-03-26T05:57:27;99268.59;;;12.14;95.54
57376;BME280;44805;45.048;5.062;2023-03-26T05:59:53;99271.72;;;12.10;95.46
57376;BME280;44805;45.048;5.062;2023-03-26T06:02:19;99278.25;;;12.30;94.26
57376;BME280;44805;45.048;5.062;2023-03-26T06:04:45;99293.06;;;12.40;92.99
57376;BME280;44805;45.048;5.062;2023-03-26T06:07:10;99290.59;;;12.38;94.67
57376;BME280;44805;45.048;5.062;2023-03-26T06:09:36;99284.16;;;12.41;94.70
57376;BME280;44805;45.048;5.062;2023-03-26T06:12:03;99282.31;;;12.49;95.38
57376;BME280;44805;45.048;5.062;2023-03-26T06:14:28;99293.19;;;12.46;95.29
57376;BME280;44805;45.048;5.062;2023-03-26T06:16:53;99288.22;;;12.51;95.11
57376;BME280;44805;45.048;5.062;2023-03-26T06:19:18;99287.56;;;12.57;94.95
57376;BME280;44805;45.048;5.062;2023-03-26T06:21:44;99297.25;;;12.65;94.59
57376;BME280;44805;45.048;5.062;2023-03-26T06:24:10;99310.63;;;12.64;94.10
57376;BME280;44805;45.048;5.062;2023-03-26T06:26:35;99303.50;;;12.72;93.92
57376;BME280;44805;45.048;5.062;2023-03-26T06:29:00;99319.66;;;12.69;92.95
57376;BME280;44805;45.048;5.062;2023-03-26T06:31:25;99313.72;;;12.75;92.80
57376;BME280;44805;45.048;5.062;2023-03-26T06:33:51;99298.56;;;12.61;93.83
57376;BME280;44805;45.048;5.062;2023-03-26T06:36:17;99279.31;;;12.52;94.26
57376;BME280;44805;45.048;5.062;2023-03-26T06:38:42;99289.69;;;12.54;95.13
57376;BME280;44805;45.048;5.062;2023-03-26T06:41:07;99305.22;;;12.57;94.67
57376;BME280;44805;45.048;5.062;2023-03-26T06:43:33;99324.69;;;12.56;95.08
57376;BME280;44805;45.048;5.062;2023-03-26T06:46:00;99336.41;;;12.53;94.07
57376;BME280;44805;45.048;5.062;2023-03-26T06:48:25;99334.50;;;12.39;94.82
57376;BME280;44805;45.048;5.062;2023-03-26T06:50:50;99342.88;;;12.43;94.65
57376;BME280;44805;45.048;5.062;2023-03-26T06:53:16;99344.56;;;12.35;95.51
57376;BME280;44805;45.048;5.062;2023-03-26T06:55:41;99343.22;;;12.48;95.64
57376;BME280;44805;45.048;5.062;2023-03-26T06:58:06;99337.56;;;12.51;94.18
57376;BME280;44805;45.048;5.062;2023-03-26T07:00:32;99336.91;;;12.57;93.08
57376;BME280;44805;45.048;5.062;2023-03-26T07:02:57;99336.22;;;12.63;93.75
57376;BME280;44805;45.048;5.062;2023-03-26T07:05:22;99323.41;;;12.52;93.94
57376;BME280;44805;45.048;5.062;2023-03-26T07:07:47;99317.22;;;12.68;93.64
57376;BME280;44805;45.048;5.062;2023-03-26T07:10:13;99308.78;;;12.72;93.67
57376;BME280;44805;45.048;5.062;2023-03-26T07:12:38;99294.78;;;12.64;94.56
57376;BME280;44805;45.048;5.062;2023-03-26T07:15:05;99288.00;;;12.61;94.17
57376;BME280;44805;45.048;5.062;2023-03-26T07:17:31;99302.19;;;12.68;95.13
57376;BME280;44805;45.048;5.062;2023-03-26T07:19:56;99316.09;;;12.54;95.41
57376;BME280;44805;45.048;5.062;2023-03-26T07:22:22;99308.16;;;12.62;95.12
57376;BME280;44805;45.048;5.062;2023-03-26T07:24:48;99291.00;;;12.58;96.23
57376;BME280;44805;45.048;5.062;2023-03-26T07:32:41;99297.97;;;12.51;95.40
57376;BME280;44805;45.048;5.062;2023-03-26T07:45:09;99269.47;;;12.38;95.90
57376;BME280;44805;45.048;5.062;2023-03-26T07:47:36;99276.28;;;12.32;95.89
57376;BME280;44805;45.048;5.062;2023-03-26T07:50:03;99279.69;;;12.49;95.66
57376;BME280;44805;45.048;5.062;2023-03-26T07:52:28;99290.94;;;12.35;95.14
57376;BME280;44805;45.048;5.062;2023-03-26T07:54:54;99292.72;;;12.43;95.48
57376;BME280;44805;45.048;5.062;2023-03-26T07:57:41;99295.06;;;12.37;95.78
57376;BME280;44805;45.048;5.062;2023-03-26T08:00:16;99278.06;;;12.40;95.10
57376;BME280;44805;45.048;5.062;2023-03-26T08:02:55;99287.78;;;12.40;94.10
57376;BME280;44805;45.048;5.062;2023-03-26T08:05:29;99281.94;;;12.13;96.48
57376;BME280;44805;45.048;5.062;2023-03-26T08:08:01;99285.50;;;12.28;95.90
57376;BME280;44805;45.048;5.062;2023-03-26T08:10:52;99299.88;;;12.34;94.78
57376;BME280;44805;45.048;5.062;2023-03-26T08:13:22;99303.44;;;12.41;94.09
57376;BME280;44805;45.048;5.062;2023-03-26T08:15:55;99311.63;;;12.15;93.54
57376;BME280;44805;45.048;5.062;2023-03-26T08:20:54;99291.22;;;12.48;92.67
57376;BME280;44805;45.048;5.062;2023-03-26T08:23:26;99284.16;;;12.41;91.77
57376;BME280;44805;45.048;5.062;2023-03-26T08:30:48;99295.53;;;12.41;92.53
57376;BME280;44805;45.048;5.062;2023-03-26T08:33:16;99288.75;;;12.47;94.31
57376;BME280;44805;45.048;5.062;2023-03-26T08:35:42;99279.47;;;12.51;93.08
57376;BME280;44805;45.048;5.062;2023-03-26T08:38:11;99280.41;;;12.66;91.97
57376;BME280;44805;45.048;5.062;2023-03-26T08:40:51;99312.75;;;12.68;92.04
57376;BME280;44805;45.048;5.062;2023-03-26T08:45:53;99334.09;;;12.58;92.38
57376;BME280;44805;45.048;5.062;2023-03-26T08:56:22;99327.59;;;12.30;92.02
57376;BME280;44805;45.048;5.062;2023-03-26T08:58:59;99318.53;;;12.16;92.12
57376;BME280;44805;45.048;5.062;2023-03-26T09:25:11;99293.53;;;12.82;89.47
57376;BME280;44805;45.048;5.062;2023-03-26T09:33:23;99270.66;;;12.98;88.24
57376;BME280;44805;45.048;5.062;2023-03-26T09:57:13;99270.94;;;13.49;82.76
57376;BME280;44805;45.048;5.062;2023-03-26T10:24:37;99233.31;;;14.06;70.71
57376;BME280;44805;45.048;5.062;2023-03-26T10:34:52;99258.50;;;13.87;73.21
57376;BME280;44805;45.048;5.062;2023-03-26T10:45:55;99261.66;;;13.68;74.56
57376;BME280;44805;45.048;5.062;2023-03-26T10:53:38;99245.00;;;13.82;70.41
57376;BME280;44805;45.048;5.062;2023-03-26T10:56:16;99230.13;;;13.96;69.24
57376;BME280;44805;45.048;5.062;2023-03-26T10:58:45;99223.09;;;14.03;68.98
57376;BME280;44805;45.048;5.062;2023-03-26T11:01:23;99224.38;;;13.78;67.42
57376;BME280;44805;45.048;5.062;2023-03-26T11:03:52;99225.84;;;13.95;67.63
57376;BME280;44805;45.048;5.062;2023-03-26T11:14:56;99234.72;;;14.90;64.22
57376;BME280;44805;45.048;5.062;2023-03-26T11:19:51;99238.84;;;15.14;64.65
57376;BME280;44805;45.048;5.062;2023-03-26T11:32:53;99239.59;;;15.29;62.78
57376;BME280;44805;45.048;5.062;2023-03-26T11:35:25;99218.22;;;15.66;61.54
57376;BME280;44805;45.048;5.062;2023-03-26T11:37:55;99205.13;;;15.92;60.08
57376;BME280;44805;45.048;5.062;2023-03-26T11:40:39;99205.47;;;16.17;58.45
57376;BME280;44805;45.048;5.062;2023-03-26T11:43:06;99210.09;;;16.57;55.23
57376;BME280;44805;45.048;5.062;2023-03-26T11:45:43;99208.47;;;16.62;54.04
57376;BME280;44805;45.048;5.062;2023-03-26T11:48:14;99207.00;;;16.53;53.95
57376;BME280;44805;45.048;5.062;2023-03-26T11:50:45;99200.28;;;16.57;53.44
57376;BME280;44805;45.048;5.062;2023-03-26T11:53:14;99200.19;;;16.31;51.70
57376;BME280;44805;45.048;5.062;2023-03-26T11:58:50;99187.69;;;16.18;50.60
57376;BME280;44805;45.048;5.062;2023-03-26T12:01:23;99191.84;;;16.34;51.75
57376;BME280;44805;45.048;5.062;2023-03-26T12:03:55;99191.00;;;16.26;50.53
57376;BME280;44805;45.048;5.062;2023-03-26T12:06:22;99185.72;;;15.92;49.48
57376;BME280;44805;45.048;5.062;2023-03-26T12:14:55;99180.25;;;15.65;50.35
57376;BME280;44805;45.048;5.062;2023-03-26T12:17:26;99176.34;;;15.61;50.79
57376;BME280;44805;45.048;5.062;2023-03-26T12:19:57;99189.59;;;15.61;49.94
57376;BME280;44805;45.048;5.062;2023-03-26T12:25:30;99191.22;;;15.62;49.76
57376;BME280;44805;45.048;5.062;2023-03-26T12:32:54;99204.38;;;15.98;51.76
57376;BME280;44805;45.048;5.062;2023-03-26T12:35:24;99213.84;;;15.79;50.26
57376;BME280;44805;45.048;5.062;2023-03-26T12:38:12;99231.03;;;15.34;54.95
57376;BME280;44805;45.048;5.062;2023-03-26T12:40:44;99237.72;;;15.02;58.71
57376;BME280;44805;45.048;5.062;2023-03-26T12:43:27;99222.09;;;14.92;59.92
57376;BME280;44805;45.048;5.062;2023-03-26T12:45:53;99213.38;;;15.19;62.84
57376;BME280;44805;45.048;5.062;2023-03-26T12:48:20;99206.28;;;14.98;62.94
57376;BME280;44805;45.048;5.062;2023-03-26T12:53:51;99250.69;;;14.60;62.53
57376;BME280;44805;45.048;5.062;2023-03-26T13:17:28;99222.75;;;14.58;59.88
57376;BME280;44805;45.048;5.062;2023-03-26T13:20:10;99211.56;;;14.77;58.45
57376;BME280;44805;45.048;5.062;2023-03-26T13:27:58;99197.41;;;14.70;57.22
57376;BME280;44805;45.048;5.062;2023-03-26T13:30:30;99197.66;;;14.53;56.31
57376;BME280;44805;45.048;5.062;2023-03-26T13:33:20;99190.41;;;15.05;56.88
57376;BME280;44805;45.048;5.062;2023-03-26T13:36:12;99194.25;;;15.24;54.58
57376;BME280;44805;45.048;5.062;2023-03-26T13:44:20;99198.63;;;15.10;55.02
57376;BME280;44805;45.048;5.062;2023-03-26T13:46:49;99197.09;;;15.51;57.28
57376;BME280;44805;45.048;5.062;2023-03-26T13:49:18;99186.91;;;15.54;55.20
57376;BME280;44805;45.048;5.062;2023-03-26T13:51:47;99168.88;;;15.71;53.52
57376;BME280;44805;45.048;5.062;2023-03-26T13:59:46;99146.59;;;16.07;51.97
57376;BME280;44805;45.048;5.062;2023-03-26T14:02:18;99133.06;;;15.95;50.62
57376;BME280;44805;45.048;5.062;2023-03-26T14:04:52;99127.00;;;16.08;50.90
57376;BME280;44805;45.048;5.062;2023-03-26T14:07:27;99120.94;;;16.34;50.47
57376;BME280;44805;45.048;5.062;2023-03-26T14:10:12;99115.25;;;16.70;47.85
57376;BME280;44805;45.048;5.062;2023-03-26T14:15:30;99108.53;;;16.81;49.11
57376;BME280;44805;45.048;5.062;2023-03-26T14:18:01;99103.84;;;16.97;45.20
57376;BME280;44805;45.048;5.062;2023-03-26T14:23:03;99089.09;;;16.94;43.95
57376;BME280;44805;45.048;5.062;2023-03-26T14:49:29;99058.97;;;15.59;47.73
57376;BME280;44805;45.048;5.062;2023-03-26T14:52:03;99059.78;;;15.59;49.79
57376;BME280;44805;45.048;5.062;2023-03-26T14:54:30;99059.47;;;15.34;51.32
57376;BME280;44805;45.048;5.062;2023-03-26T15:16:14;99044.59;;;15.05;64.73
57376;BME280;44805;45.048;5.062;2023-03-26T15:38:03;99016.97;;;14.86;68.69
57376;BME280;44805;45.048;5.062;2023-03-26T15:40:35;99008.31;;;14.77;65.94
57376;BME280;44805;45.048;5.062;2023-03-26T15:43:09;99009.13;;;14.78;67.13
57376;BME280;44805;45.048;5.062;2023-03-26T16:04:33;98984.34;;;14.36;67.21
57376;BME280;44805;45.048;5.062;2023-03-26T16:06:59;98984.91;;;14.31;65.27
57376;BME280;44805;45.048;5.062;2023-03-26T16:09:36;98979.38;;;14.26;66.72
57376;BME280;44805;45.048;5.062;2023-03-26T16:17:11;98985.63;;;14.19;68.03
57376;BME280;44805;45.048;5.062;2023-03-26T16:22:15;98981.75;;;14.15;68.40
57376;BME280;44805;45.048;5.062;2023-03-26T16:24:57;98974.22;;;13.97;71.26
57376;BME280;44805;45.048;5.062;2023-03-26T16:27:35;98965.34;;;13.83;72.06
57376;BME280;44805;45.048;5.062;2023-03-26T16:30:05;98958.03;;;13.85;79.07
57376;BME280;44805;45.048;5.062;2023-03-26T16:32:35;98952.13;;;13.83;80.85
57376;BME280;44805;45.048;5.062;2023-03-26T16:37:42;98950.09;;;13.85;80.67
57376;BME280;44805;45.048;5.062;2023-03-26T16:50:45;98945.28;;;13.74;83.48
57376;BME280;44805;45.048;5.062;2023-03-26T16:58:53;98933.22;;;13.64;81.61
57376;BME280;44805;45.048;5.062;2023-03-26T17:06:22;98918.69;;;13.39;79.92
57376;BME280;44805;45.048;5.062;2023-03-26T17:08:59;98917.44;;;13.35;82.98
57376;BME280;44805;45.048;5.062;2023-03-26T17:11:44;98909.59;;;13.41;84.15
57376;BME280;44805;45.048;5.062;2023-03-26T17:14:24;98921.81;;;13.28;82.72
57376;BME280;44805;45.048;5.062;2023-03-26T17:21:55;98928.84;;;13.06;80.52
57376;BME280;44805;45.048;5.062;2023-03-26T17:24:24;98925.03;;;12.93;79.89
57376;BME280;44805;45.048;5.062;2023-03-26T17:35:50;98910.41;;;13.12;79.51
57376;BME280;44805;45.048;5.062;2023-03-26T17:40:45;98895.38;;;13.28;82.62
57376;BME280;44805;45.048;5.062;2023-03-26T17:43:13;98896.47;;;13.18;82.34
57376;BME280;44805;45.048;5.062;2023-03-26T17:45:56;98889.66;;;13.09;78.57
57376;BME280;44805;45.048;5.062;2023-03-26T17:48:21;98884.09;;;13.04;77.21
57376;BME280;44805;45.048;5.062;2023-03-26T17:53:23;98868.22;;;13.19;80.55
57376;BME280;44805;45.048;5.062;2023-03-26T17:55:51;98883.91;;;13.20;82.49
57376;BME280;44805;45.048;5.062;2023-03-26T18:01:26;98867.16;;;13.13;78.15
57376;BME280;44805;45.048;5.062;2023-03-26T18:03:57;98877.72;;;13.13;82.84
57376;BME280;44805;45.048;5.062;2023-03-26T18:16:56;98872.63;;;12.97;82.64
57376;BME280;44805;45.048;5.062;2023-03-26T18:19:23;98883.56;;;12.94;81.74
57376;BME280;44805;45.048;5.062;2023-03-26T18:21:53;98876.13;;;12.82;82.12
57376;BME280;44805;45.048;5.062;2023-03-26T18:24:31;98863.75;;;12.83;82.98
57376;BME280;44805;45.048;5.062;2023-03-26T18:27:01;98849.81;;;12.74;83.00
57376;BME280;44805;45.048;5.062;2023-03-26T18:29:28;98846.44;;;12.80;81.28
57376;BME280;44805;45.048;5.062;2023-03-26T18:34:36;98868.94;;;12.62;80.45
57376;BME280;44805;45.048;5.062;2023-03-26T18:37:15;98862.66;;;12.48;79.88
57376;BME280;44805;45.048;5.062;2023-03-26T18:40:27;98849.84;;;12.45;77.60
57376;BME280;44805;45.048;5.062;2023-03-26T18:45:34;98861.00;;;12.17;73.67
57376;BME280;44805;45.048;5.062;2023-03-26T18:48:04;98858.53;;;12.15;75.82
57376;BME280;44805;45.048;5.062;2023-03-26T18:50:34;98875.47;;;12.06;76.98
57376;BME280;44805;45.048;5.062;2023-03-26T18:53:01;98866.66;;;12.14;77.28
57376;BME280;44805;45.048;5.062;2023-03-26T18:55:27;98878.19;;;12.13;77.13
57376;BME280;44805;45.048;5.062;2023-03-26T19:01:05;98889.59;;;12.28;78.83
57376;BME280;44805;45.048;5.062;2023-03-26T19:03:40;98880.19;;;12.11;75.30
57376;BME280;44805;45.048;5.062;2023-03-26T19:06:08;98893.59;;;11.86;76.69
57376;BME280;44805;45.048;5.062;2023-03-26T19:08:34;98894.00;;;11.98;79.01
57376;BME280;44805;45.048;5.062;2023-03-26T19:11:06;98889.59;;;11.90;80.87
57376;BME280;44805;45.048;5.062;2023-03-26T19:13:33;98898.78;;;11.71;78.80
57376;BME280;44805;45.048;5.062;2023-03-26T19:16:06;98886.34;;;11.80;79.40
57376;BME280;44805;45.048;5.062;2023-03-26T19:18:31;98890.06;;;11.71;79.16
57376;BME280;44805;45.048;5.062;2023-03-26T19:20:58;98892.00;;;11.77;80.86
57376;BME280;44805;45.048;5.062;2023-03-26T19:23:28;98890.00;;;11.79;81.43
57376;BME280;44805;45.048;5.062;2023-03-26T19:25:56;98885.91;;;11.77;80.94
57376;BME280;44805;45.048;5.062;2023-03-26T19:31:25;98891.81;;;11.79;81.85
57376;BME280;44805;45.048;5.062;2023-03-26T19:36:25;98871.66;;;11.86;85.24
57376;BME280;44805;45.048;5.062;2023-03-26T19:38:54;98864.59;;;11.63;83.89
57376;BME280;44805;45.048;5.062;2023-03-26T19:43:57;98884.75;;;11.56;84.21
57376;BME280;44805;45.048;5.062;2023-03-26T19:46:23;98887.97;;;11.43;84.68
57376;BME280;44805;45.048;5.062;2023-03-26T19:48:50;98897.97;;;11.25;86.07
57376;BME280;44805;45.048;5.062;2023-03-26T19:51:23;98904.31;;;11.07;85.95
57376;BME280;44805;45.048;5.062;2023-03-26T19:53:54;98894.72;;;11.15;86.67